Date,TemperatureHighF,TemperatureAvgF,TemperatureLowF,DewpointHighF,DewpointAvgF,DewpointLowF,HumidityHigh,HumidityAvg,HumidityLow,PressureMaxIn,PressureMinIn,WindSpeedMaxMPH,WindSpeedAvgMPH,GustSpeedMaxMPH,PrecipitationSumIn
2013-1-1,24,22,18,18,14,11,82,71,60,30.13,30.01,0,-999,0,0.00
2013-1-2,25,21,17,21,15,11,85,77,68,30.14,30.03,0,-999,0,0.00
2013-1-3,28,25,20,23,20,16,92,82,76,30.09,29.98,0,-999,0,0.00
2013-1-4,33,28,26,25,22,20,86,77,69,30.10,29.89,0,-999,0,0.00
2013-1-5,33,28,18,31,24,16,96,88,77,30.22,29.91,0,-999,0,0.00
2013-1-6,34,33,29,33,30,23,96,90,79,30.22,29.81,0,-999,0,0.00
2013-1-7,36,32,28,26,25,23,87,76,58,30.27,30.02,0,-999,0,0.00
2013-1-8,39,32,27,32,26,23,86,81,73,30.16,30.04,0,-999,0,0.00
2013-1-9,45,37,29,34,29,25,89,73,48,30.37,29.88,0,-999,0,0.00
2013-1-10,37,32,26,32,28,23,92,84,75,30.53,30.14,0,-999,0,0.00
2013-1-11,50,41,33,49,40,31,98,96,91,30.16,29.66,0,-999,0,0.00
2013-1-12,56,48,41,49,42,31,96,80,57,29.89,29.70,0,-999,0,0.00
2013-1-13,40,35,27,35,33,23,97,93,73,29.98,29.75,0,-999,0,0.00
2013-1-14,27,22,16,25,16,11,93,78,65,30.38,29.96,0,-999,0,0.00
2013-1-15,27,20,13,19,15,11,92,83,69,30.40,30.13,0,-999,0,0.00
2013-1-16,34,25,17,29,21,14,91,84,69,30.13,29.68,0,-999,0,0.00
2013-1-17,31,22,13,28,16,5,90,78,58,30.30,29.88,0,-999,0,0.00
2013-1-18,35,20,7,27,15,4,88,78,67,30.40,29.82,0,-999,0,0.00
2013-1-19,40,37,32,36,31,24,94,79,70,29.82,29.42,0,-999,0,0.00
2013-1-20,33,18,11,32,12,4,95,75,63,30.15,29.43,0,-999,0,0.00
2013-1-21,13,10,2,10,3,-5,86,73,56,30.12,29.93,0,-999,0,0.00
2013-1-22,7,3,-1,-1,-6,-8,77,68,54,30.27,30.07,0,-999,0,0.00
2013-1-23,15,8,2,11,4,-4,90,83,76,30.27,30.07,0,-999,0,0.00
2013-1-24,15,9,3,9,3,-1,91,75,57,30.61,30.14,0,-999,0,0.00
2013-1-25,20,15,11,19,11,4,100,83,72,30.50,29.99,0,-999,0,0.00
2013-1-26,28,21,16,17,16,13,92,81,60,30.41,30.02,0,-999,0,0.00
2013-1-27,28,23,15,25,17,12,94,79,65,30.43,30.12,0,-999,0,0.00
2013-1-28,38,34,26,37,32,25,97,95,92,30.12,29.78,0,-999,0,0.00
2013-1-29,53,41,33,52,40,31,99,97,93,29.98,29.35,0,-999,0,0.00
2013-1-30,53,40,31,52,39,26,99,96,82,29.36,29.01,0,-999,0,0.00
2013-1-31,30,21,17,25,12,7,81,70,58,29.83,29.14,16,-308,0,0.00
2013-2-1,18,16,12,12,9,4,83,72,61,30.16,29.83,13,10,0,0.00
2013-2-2,17,14,8,11,8,3,88,78,62,30.13,29.98,10,5,0,0.00
2013-2-3,19,12,6,14,7,2,87,80,67,30.02,29.82,13,4,0,0.00
2013-2-4,22,15,11,14,11,8,89,84,71,29.99,29.89,5,2,0,0.00
2013-2-5,26,17,6,23,13,3,90,84,75,29.96,29.74,15,4,0,0.00
2013-2-6,28,21,9,22,15,7,92,77,62,30.26,29.96,8,2,0,0.00
2013-2-7,30,26,24,27,24,20,97,90,77,30.23,29.94,9,5,0,0.00
2013-2-8,28,23,10,27,20,7,100,88,72,30.35,29.89,24,15,0,0.00
2013-2-9,26,12,0,18,8,-3,100,86,71,30.44,30.27,6,1,0,0.00
2013-2-10,38,19,1,36,17,-2,94,90,84,30.27,29.60,9,3,0,0.00
2013-2-11,41,37,32,40,33,28,96,84,73,29.74,29.44,18,12,0,0.00
2013-2-12,32,29,25,28,23,19,85,78,73,29.96,29.73,12,8,0,0.00
2013-2-13,33,29,25,28,25,19,87,83,78,29.88,29.70,9,5,0,0.00
2013-2-14,39,33,29,35,30,25,96,90,81,29.77,29.56,21,6,0,0.00
2013-2-15,28,24,19,26,17,11,92,75,59,30.10,29.76,21,8,0,0.00
2013-2-16,22,16,9,17,13,4,92,87,77,30.09,29.99,10,3,0,0.00
2013-2-17,22,12,2,9,4,-2,86,72,53,30.20,30.09,9,4,0,0.00
2013-2-18,43,28,14,37,19,7,85,70,57,30.17,29.49,10,6,0,0.00
2013-2-19,44,31,19,40,26,8,94,81,64,29.83,29.28,18,13,0,0.00
2013-2-20,20,18,15,14,10,7,80,72,64,30.23,29.83,19,14,0,0.00
2013-2-21,22,17,13,20,12,6,93,80,74,30.41,30.23,16,8,0,0.00
2013-2-22,30,25,22,29,23,17,97,93,81,30.29,29.81,14,5,0,0.00
2013-2-23,33,30,25,31,26,23,97,88,67,29.85,29.79,9,6,0,0.00
2013-2-24,36,30,24,27,24,22,100,80,60,30.11,29.83,10,5,0,0.00
2013-2-25,37,32,27,26,24,22,85,73,57,30.19,30.10,5,2,0,0.00
2013-2-26,34,29,22,31,26,19,97,89,82,30.13,29.60,25,13,0,0.00
2013-2-27,33,32,32,32,32,31,98,98,97,29.60,29.50,18,12,0,0.00
2013-2-28,34,32,28,32,29,22,98,88,76,29.97,29.55,18,13,0,0.00
2013-3-1,28,25,22,23,19,16,84,80,74,30.13,29.97,17,13,0,0.00
2013-3-2,25,22,18,19,17,14,92,81,73,30.12,30.06,15,9,0,0.00
2013-3-3,30,20,13,20,15,10,90,81,66,30.06,29.98,13,5,0,0.00
2013-3-4,31,21,12,21,15,9,91,79,61,30.13,30.06,6,3,0,0.00
2013-3-5,30,22,13,28,20,11,93,90,79,30.14,29.92,20,8,0,0.00
2013-3-6,34,31,28,32,29,25,95,90,86,30.19,29.94,17,8,0,0.00
2013-3-7,33,30,25,31,24,19,96,78,60,30.39,30.18,13,6,0,0.00
2013-3-8,37,28,21,28,23,17,88,80,67,30.49,30.39,6,2,0,0.00
2013-3-9,40,32,22,33,28,21,96,84,68,30.39,30.01,7,3,0,0.00
2013-3-10,46,39,33,42,36,31,96,89,80,30.02,29.75,7,2,0,0.00
2013-3-11,48,42,36,47,40,33,98,93,85,29.76,29.40,13,4,0,0.00
2013-3-12,36,33,29,34,29,24,93,85,70,29.83,29.54,12,8,0,0.00
2013-3-13,32,27,23,26,18,14,88,70,48,30.15,29.81,20,13,0,0.00
2013-3-14,38,30,21,23,19,15,84,66,44,30.22,30.01,12,6,0,0.00
2013-3-15,41,34,30,31,27,21,86,77,52,30.01,29.82,12,7,0,0.00
2013-3-16,30,25,22,25,22,20,94,89,75,30.03,29.81,16,9,0,0.00
2013-3-17,23,20,17,21,13,7,92,73,56,30.31,30.02,18,8,0,0.00
2013-3-18,32,26,18,30,23,13,97,86,73,30.23,29.51,10,5,0,0.00
2013-3-19,33,25,22,31,20,15,97,80,68,29.84,29.50,14,10,0,0.00
2013-3-20,26,22,18,17,15,12,79,72,59,29.89,29.83,12,7,0,0.00
2013-3-21,31,25,18,23,19,13,87,77,65,29.89,29.78,18,10,0,0.00
2013-3-22,35,29,25,27,22,19,80,75,66,30.00,29.89,13,8,0,0.00
2013-3-23,37,31,28,27,25,23,86,77,62,30.09,30.00,11,5,0,0.00
2013-3-24,33,31,28,29,26,24,92,84,74,30.03,29.72,21,10,0,0.00
2013-3-25,37,34,30,32,29,26,88,83,74,29.91,29.67,21,14,0,0.00
2013-3-26,41,36,32,33,29,26,87,76,61,30.07,29.91,13,8,0,0.00
2013-3-27,45,37,31,31,28,25,83,69,52,30.16,30.05,16,11,0,0.00
2013-3-28,50,40,31,30,27,24,82,64,39,30.22,30.16,12,8,0,0.00
2013-3-29,51,39,29,31,25,22,84,60,34,30.24,30.15,10,4,0,0.00
2013-3-30,53,40,26,33,27,23,90,65,32,30.18,29.84,10,3,0,0.00
2013-3-31,54,45,35,42,36,-100,90,73,52,29.84,29.54,17,7,0,0.00
2013-4-1,35,29,26,30,17,12,83,61,45,30.05,29.65,20,12,0,0.00
2013-4-2,37,29,22,19,16,11,83,60,37,30.21,30.05,18,9,0,0.00
2013-4-3,42,31,22,21,17,14,77,56,37,30.40,30.21,14,6,0,0.00
2013-4-4,55,41,28,34,24,18,75,53,33,30.30,29.87,14,8,0,0.00
2013-4-5,41,35,31,34,26,18,85,69,43,30.19,29.93,17,8,0,0.00
2013-4-6,47,37,29,31,24,20,76,61,44,30.21,29.65,10,6,0,0.00
2013-4-7,53,45,38,48,36,28,87,71,45,30.01,29.46,18,10,0,0.00
2013-4-8,42,38,32,40,36,29,97,91,77,30.01,29.66,15,6,0,0.00
2013-4-9,40,38,37,39,37,36,98,97,94,30.06,29.88,16,6,0,0.00
2013-4-10,38,37,36,37,35,32,96,93,82,30.09,29.93,24,16,0,0.00
2013-4-11,37,34,32,33,32,30,96,91,82,30.03,29.71,26,16,0,0.00
2013-4-12,40,36,32,38,34,31,96,93,85,29.72,29.53,18,9,0,0.00
2013-4-13,40,36,34,34,31,26,95,82,65,29.92,29.68,16,8,0,0.00
2013-4-14,41,36,30,37,32,27,92,85,77,30.08,29.91,11,5,0,0.00
2013-4-15,67,52,38,55,45,34,95,80,65,29.92,29.76,13,6,0,0.00
2013-4-16,56,49,41,53,40,33,96,75,44,30.24,29.83,12,8,0,0.00
2013-4-17,42,39,36,39,36,32,94,87,80,30.35,30.04,21,10,0,0.00
2013-4-18,62,51,41,60,49,39,98,94,87,30.04,29.39,15,6,0,0.00
2013-4-19,61,44,36,58,38,24,95,80,64,29.63,29.26,21,13,0,0.00
2013-4-20,36,32,28,25,21,18,75,63,52,30.41,29.63,16,11,0,0.00
2013-4-21,44,35,26,36,26,19,81,69,52,30.60,30.42,11,5,0,0.00
2013-4-22,54,44,33,42,33,25,82,66,44,30.44,30.15,10,4,0,0.00
2013-4-23,62,52,42,53,43,33,96,73,51,30.14,29.75,15,5,0,0.00
2013-4-24,46,38,33,39,31,24,95,77,45,30.03,29.80,15,10,0,0.00
2013-4-25,49,41,35,40,31,25,93,69,43,30.28,29.99,17,8,0,0.00
2013-4-26,60,47,33,40,33,27,88,61,42,30.38,30.23,12,6,0,0.00
2013-4-27,70,57,44,47,42,38,78,59,32,30.24,30.05,10,5,0,0.00
2013-4-28,62,53,45,52,44,-100,95,76,54,30.05,29.81,8,4,0,0.00
2013-4-29,69,59,52,56,53,51,98,83,59,29.87,29.80,8,3,0,0.00
2013-4-30,72,63,57,58,56,53,95,77,60,29.96,29.83,15,7,0,0.00
2013-5-1,83,72,60,62,57,53,82,61,36,30.14,29.95,8,6,0,0.00
2013-5-2,76,64,55,58,54,49,89,71,48,30.19,30.04,11,6,0,0.00
2013-5-3,74,66,60,58,51,43,74,59,37,30.08,30.00,11,4,0,0.00
2013-5-4,68,63,56,54,49,44,77,61,46,30.07,30.02,11,5,0,0.00
2013-5-5,66,59,53,53,49,44,83,71,50,30.08,29.99,13,6,0,0.00
2013-5-6,66,58,47,53,47,42,88,69,42,30.04,29.95,13,7,0,0.00
2013-5-7,69,59,47,51,47,42,88,67,37,30.04,29.97,15,6,0,0.00
2013-5-8,70,60,48,52,48,40,89,66,48,30.00,29.90,10,4,0,0.00
2013-5-9,75,61,48,59,50,45,90,71,37,29.93,29.83,15,5,0,0.00
2013-5-10,58,44,40,51,40,-100,95,90,76,29.89,29.81,29,18,0,0.00
2013-5-11,59,44,37,49,40,34,94,86,69,29.87,29.63,21,8,0,0.00
2013-5-12,42,38,35,35,30,-100,86,74,60,30.05,29.77,21,12,0,0.00
2013-5-13,54,42,30,32,27,25,86,60,34,30.12,30.03,13,5,0,0.00
2013-5-14,61,52,45,48,39,30,75,63,53,30.04,29.67,9,4,0,0.00
2013-5-15,77,65,53,55,48,40,83,56,28,29.72,29.44,17,8,0,0.00
2013-5-16,71,54,53,50,27,-100,75,60,22,30.02,29.71,17,6,0,0.00
2013-5-17,57,53,51,49,42,-100,85,74,64,30.15,30.02,15,7,0,0.00
2013-5-18,61,56,52,52,50,47,91,81,67,30.15,30.01,13,8,0,0.00
2013-5-19,78,64,50,63,55,48,94,73,54,30.01,29.81,8,2,0,0.00
2013-5-20,88,73,64,70,65,60,92,76,48,29.84,29.65,18,5,0,0.00
2013-5-21,77,71,65,66,64,62,94,80,60,29.73,29.63,10,4,0,0.00
2013-5-22,68,64,55,67,62,53,98,94,89,29.66,29.54,11,4,0,0.00
2013-5-23,55,49,45,54,47,40,98,93,78,30.14,29.60,19,11,0,0.00
2013-5-24,48,43,36,40,36,32,88,77,66,30.35,30.13,16,7,0,0.00
2013-5-25,57,48,37,44,39,35,95,73,49,30.40,30.28,9,4,0,0.00
2013-5-26,60,51,38,46,40,36,97,70,44,30.33,30.21,9,4,0,0.00
2013-5-27,65,55,41,52,43,31,92,65,36,30.23,29.98,14,4,0,0.00
2013-5-28,72,60,52,68,57,47,98,92,73,29.98,29.71,8,3,0,0.00
2013-5-29,78,70,63,69,65,61,97,87,73,29.90,29.70,16,5,0,0.00
2013-5-30,85,73,66,72,67,64,96,82,60,29.94,29.85,11,4,0,0.00
2013-5-31,79,74,70,69,66,64,90,77,64,29.88,29.75,10,6,0,0.00
2013-6-1,80,72,67,67,64,62,93,78,60,29.75,29.59,13,7,0,0.00
2013-6-2,68,59,47,63,52,-100,94,80,65,29.97,29.54,15,8,0,0.00
2013-6-3,68,53,39,44,40,37,94,64,35,30.04,29.94,13,5,0,0.00
2013-6-4,65,56,45,48,42,35,88,62,35,30.17,30.04,8,3,0,0.00
2013-6-5,62,58,55,52,44,37,83,61,46,30.17,30.01,15,7,0,0.00
2013-6-6,59,58,55,53,50,47,88,76,67,30.01,29.89,16,11,0,0.00
2013-6-7,60,55,48,54,50,46,92,84,70,29.91,29.86,12,8,0,0.00
2013-6-8,70,60,50,57,53,48,96,79,61,30.03,29.87,13,2,0,0.00
2013-6-9,72,63,52,64,58,51,97,82,68,30.07,29.93,8,3,0,0.00
2013-6-10,66,62,59,62,59,53,98,90,63,29.93,29.71,11,6,0,0.00
2013-6-11,79,67,61,68,63,60,99,86,66,29.83,29.73,8,3,0,0.00
2013-6-12,69,64,59,65,62,58,99,95,88,29.85,29.63,11,4,0,0.00
2013-6-13,72,66,60,62,59,55,95,79,58,29.90,29.62,16,6,0,0.00
2013-6-14,64,61,55,58,52,49,88,73,59,30.06,29.89,12,6,0,0.00
2013-6-15,77,64,50,62,55,48,96,74,47,30.01,29.82,7,3,0,0.00
2013-6-16,82,71,63,66,61,53,98,74,40,29.83,29.67,11,4,0,0.00
2013-6-17,76,64,58,63,58,54,89,81,63,29.92,29.77,16,5,0,0.00
2013-6-18,64,60,56,54,50,42,91,71,51,30.06,29.91,15,10,0,0.00
2013-6-19,68,61,46,53,48,42,92,62,46,30.15,30.06,8,4,0,0.00
2013-6-20,79,64,53,59,51,44,83,64,38,30.15,30.09,8,3,0,0.00
2013-6-22,87,80,67,72,69,65,92,71,58,29.98,29.88,11,5,0,0.00
2013-6-23,90,77,62,72,67,61,96,74,48,29.97,29.84,11,5,0,0.00
2013-6-24,86,79,72,71,68,63,86,70,55,29.93,29.81,9,5,0,0.00
2013-6-25,80,74,69,69,67,64,92,78,63,29.84,29.73,8,4,0,0.00
2013-6-26,82,75,65,72,68,63,96,81,64,29.78,29.67,8,3,0,0.00
2013-6-27,82,74,67,73,69,66,97,86,70,29.70,29.58,6,2,0,0.00
2013-6-28,72,68,64,68,65,63,98,91,83,29.59,29.48,11,4,0,0.00
2013-6-29,70,66,61,63,61,57,96,85,67,29.71,29.51,9,6,0,0.00
2013-6-30,70,66,59,64,56,44,95,74,40,29.95,29.71,13,6,0,0.00
2013-7-1,68,62,54,60,52,44,85,71,49,30.09,29.95,18,10,0,0.00
2013-7-2,69,64,58,59,54,47,91,73,56,30.06,30.02,13,9,0,0.00
2013-7-3,74,66,55,68,62,52,95,87,78,30.06,29.98,9,4,0,0.00
2013-7-4,79,71,63,67,63,61,98,78,56,30.05,29.99,8,3,0,0.00
2013-7-5,83,73,65,67,64,61,92,74,54,30.03,29.96,7,2,0,0.00
2013-7-6,87,76,67,72,67,63,94,75,47,30.02,29.89,6,2,0,0.00
2013-7-7,79,74,68,72,69,66,93,84,73,29.93,29.86,7,3,0,0.00
2013-7-8,80,74,71,73,70,68,97,89,72,29.92,29.88,8,4,0,0.00
2013-7-9,82,74,67,73,70,66,98,88,68,29.91,29.76,5,2,0,0.00
2013-7-10,82,74,65,72,63,-100,96,74,49,29.88,29.67,17,8,0,0.00
2013-7-11,71,65,58,61,58,55,92,78,63,30.03,29.88,8,4,0,0.00
2013-7-12,73,65,53,64,59,51,94,81,70,30.14,30.03,8,4,0,0.00
2013-7-13,80,72,57,67,63,55,95,75,56,30.16,30.10,8,3,0,0.00
2013-7-14,82,74,61,74,68,59,95,79,70,30.21,30.16,7,2,0,0.00
2013-7-15,89,80,71,77,72,68,91,77,56,30.23,30.15,5,1,0,0.00
2013-7-16,93,84,73,77,74,71,96,75,52,30.22,30.13,7,2,0,0.00
2013-7-17,93,82,74,77,74,71,90,76,56,30.17,30.04,7,3,0,0.00
2013-7-18,94,83,73,77,72,70,93,71,48,30.07,29.82,9,4,0,0.00
2013-7-19,91,84,75,75,73,69,86,71,52,29.82,29.58,15,8,0,0.00
2013-7-20,81,72,67,70,63,-100,94,76,46,29.90,29.64,13,4,0,0.00
2013-7-21,74,66,54,63,56,50,88,70,51,29.98,29.89,7,4,0,0.00
2013-7-22,83,72,62,71,64,59,96,77,56,29.92,29.66,7,2,0,0.00
2013-7-23,73,68,59,69,62,48,93,80,59,29.85,29.58,18,8,0,0.00
2013-7-24,68,59,49,55,50,46,91,73,59,30.01,29.85,11,5,0,0.00
2013-7-25,76,63,50,58,53,48,95,72,46,30.07,29.99,4,1,0,0.00
2013-7-26,77,67,60,65,59,53,95,76,58,30.01,29.82,8,4,0,0.00
2013-7-27,75,65,57,64,61,52,96,86,63,29.83,29.67,10,3,0,0.00
2013-7-28,67,58,51,56,52,48,92,81,60,29.89,29.74,8,4,0,0.00
2013-7-29,71,61,55,59,56,53,96,84,63,30.12,29.87,9,4,0,0.00
2013-7-30,74,63,51,63,56,50,96,79,59,30.18,30.07,7,1,0,0.00
2013-7-31,67,64,61,64,62,59,97,92,83,30.07,29.84,5,1,0,0.00
2013-8-1,78,68,58,64,59,54,97,75,46,29.84,29.80,9,3,0,0.00
2013-8-2,76,66,57,66,59,53,92,79,61,29.85,29.73,11,5,0,0.00
2013-8-3,75,65,55,59,55,53,94,73,51,30.02,29.84,15,4,0,0.00
2013-8-4,69,61,52,57,54,50,93,79,63,30.14,30.02,9,3,0,0.00
2013-8-5,72,62,54,57,54,51,94,77,54,30.06,29.90,7,2,0,0.00
2013-8-6,77,68,62,68,62,55,91,82,72,29.90,29.79,8,4,0,0.00
2013-8-7,83,72,64,68,66,60,96,80,55,29.86,29.70,13,5,0,0.00
2013-8-8,71,65,55,62,57,51,95,76,57,29.99,29.86,8,4,0,0.00
2013-8-9,80,67,52,61,56,51,96,71,45,29.96,29.85,9,3,0,0.00
2013-8-10,73,64,52,58,53,47,93,70,52,30.10,29.96,7,2,0,0.00
2013-8-11,75,65,53,58,55,51,95,73,47,30.07,29.98,5,1,0,0.00
2013-8-12,78,68,62,66,61,58,91,79,59,30.00,29.75,10,2,0,0.00
2013-8-13,66,58,51,60,47,-100,91,69,45,30.02,29.81,16,10,0,0.00
2013-8-14,72,58,48,52,46,-100,93,71,43,30.11,30.03,11,5,0,0.00
2013-8-15,76,56,46,57,37,-100,93,67,37,30.10,29.99,8,2,0,0.00
2013-8-16,77,62,51,59,49,-100,90,69,35,30.15,30.04,6,1,0,0.00
2013-8-17,79,66,50,64,57,49,96,75,46,30.22,30.13,5,1,0,0.00
2013-8-18,79,68,52,63,55,-100,95,70,47,30.18,30.04,5,1,0,0.00
2013-8-19,83,65,54,60,44,-100,95,66,42,30.06,29.94,7,2,0,0.00
2013-8-20,86,72,60,66,59,-100,89,69,43,30.04,29.97,8,3,0,0.00
2013-8-21,88,76,65,69,64,62,92,71,44,30.03,29.87,10,4,0,0.00
2013-8-22,82,75,67,68,65,60,89,73,56,30.02,29.85,9,4,0,0.00
2013-8-23,72,65,53,64,58,49,90,78,66,30.15,30.01,10,5,0,0.00
2013-8-24,80,68,51,63,57,50,96,72,49,30.27,30.15,5,1,0,0.00
2013-8-25,89,73,60,68,61,-100,92,68,50,30.22,30.00,11,6,0,0.00
2013-8-26,85,77,72,72,68,65,86,76,63,30.03,29.87,8,5,0,0.00
2013-8-27,77,72,69,73,69,67,95,91,84,29.90,29.79,7,2,0,0.00
2013-8-28,75,73,67,71,70,65,97,90,85,29.97,29.88,8,4,0,0.00
2013-8-29,85,73,61,73,66,60,99,83,50,30.04,29.92,4,1,0,0.00
2013-8-30,86,75,67,74,69,65,94,83,60,29.93,29.64,12,5,0,0.00
2013-8-31,74,70,67,67,65,63,95,86,74,29.80,29.72,10,6,0,0.00
2013-9-1,76,68,62,68,62,-100,97,87,73,29.80,29.65,6,2,0,0.00
2013-9-2,70,63,56,68,57,52,95,83,68,29.86,29.67,12,8,0,0.00
2013-9-3,77,64,54,55,53,50,91,69,40,29.95,29.86,10,4,0,0.00
2013-9-4,79,64,56,66,58,52,95,83,60,30.06,29.93,10,5,0,0.00
2013-9-5,64,55,45,53,48,43,93,77,59,30.23,30.06,11,4,0,0.00
2013-9-6,75,61,45,56,51,43,94,72,46,30.23,29.98,8,4,0,0.00
2013-9-7,77,68,63,69,62,55,95,82,73,29.98,29.81,9,4,0,0.00
2013-9-8,70,64,59,68,54,-100,95,74,64,30.09,29.88,13,8,0,0.00
2013-9-9,78,66,54,70,60,50,90,81,70,30.02,29.77,8,3,0,0.00
2013-9-10,95,82,72,72,69,64,92,67,37,29.87,29.75,12,7,0,0.00
2013-9-11,84,76,68,69,66,64,93,72,52,29.92,29.85,8,4,0,0.00
2013-9-12,76,66,57,64,56,43,95,71,44,29.93,29.80,20,8,0,0.00
2013-9-13,59,52,44,46,43,38,89,71,48,30.11,29.93,16,7,0,0.00
2013-9-14,69,54,39,46,41,37,95,67,35,30.15,30.01,8,3,0,0.00
2013-9-15,60,54,53,55,48,-100,97,85,68,30.07,29.98,6,3,0,0.00
2013-9-16,55,52,47,54,45,41,97,79,63,30.36,30.07,15,7,0,0.00
2013-9-17,63,51,35,54,45,34,97,81,66,30.39,30.18,7,2,0,0.00
2013-9-18,65,46,40,46,42,38,96,86,70,30.18,29.96,6,0,0,0.00
2013-9-19,79,69,61,69,62,55,92,80,69,29.96,29.79,9,4,0,0.00
2013-9-20,76,70,66,71,66,63,97,90,77,29.79,29.63,9,5,0,0.00
2013-9-21,66,59,51,63,53,45,94,81,55,29.84,29.61,14,7,0,0.00
2013-9-22,55,48,41,45,39,-100,94,74,57,30.06,29.84,11,5,0,0.00
2013-9-23,59,52,47,48,43,40,93,72,60,30.17,30.06,6,2,0,0.00
2013-9-24,60,52,38,52,46,37,97,82,61,30.13,29.98,8,3,0,0.00
2013-9-25,63,55,41,56,50,40,97,85,69,29.99,29.95,12,4,0,0.00
2013-9-26,66,54,42,59,51,41,98,91,70,30.11,29.98,7,2,0,0.00
2013-9-27,69,56,41,60,52,40,99,88,55,30.20,30.10,7,2,0,0.00
2013-9-28,78,66,53,61,55,51,98,72,41,30.15,29.91,9,4,0,0.00
2013-9-29,67,62,57,59,54,-100,96,79,63,29.95,29.83,11,5,0,0.00
2013-9-30,68,57,47,57,52,46,98,87,54,29.98,29.86,5,1,0,0.00
2013-10-1,68,64,53,62,60,51,94,85,79,29.88,29.82,6,4,0,0.00
2013-10-2,75,64,51,61,48,38,95,63,27,30.03,29.83,6,3,0,0.00
2013-10-3,73,61,46,65,55,43,95,81,60,30.02,29.83,6,1,0,0.00
2013-10-4,69,64,60,66,62,59,98,96,89,30.01,29.83,12,5,0,0.00
2013-10-5,67,63,60,66,62,59,98,96,94,30.01,29.77,10,6,0,0.00
2013-10-6,71,64,54,66,62,53,98,93,80,29.78,29.58,11,5,0,0.00
2013-10-7,60,53,49,53,48,44,96,83,57,30.03,29.58,14,6,0,0.00
2013-10-8,69,55,40,50,45,39,98,74,44,30.23,30.03,8,3,0,0.00
2013-10-9,68,56,41,55,47,39,96,75,49,30.27,30.16,6,2,0,0.00
2013-10-10,65,54,41,57,49,40,97,86,64,30.20,30.09,6,2,0,0.00
2013-10-11,64,53,40,58,49,39,98,88,72,30.13,30.04,9,3,0,0.00
2013-10-12,77,61,45,61,53,44,98,78,53,30.05,29.94,7,3,0,0.00
2013-10-13,64,56,48,59,45,-100,91,71,47,30.32,30.00,9,4,0,0.00
2013-10-14,56,49,39,46,43,37,98,80,67,30.40,30.25,12,4,0,0.00
2013-10-15,65,54,37,58,49,35,97,86,70,30.25,29.73,8,3,0,0.00
2013-10-16,59,54,49,58,51,46,97,88,80,29.82,29.71,12,6,0,0.00
2013-10-17,52,49,45,49,46,43,96,92,83,29.83,29.68,13,3,0,0.00
2013-10-18,61,49,39,48,43,38,97,81,53,29.82,29.74,11,5,0,0.00
2013-10-19,52,46,39,44,40,34,91,82,52,29.81,29.65,12,5,0,0.00
2013-10-20,54,45,38,45,38,-100,96,79,52,29.83,29.69,8,4,0,0.00
2013-10-21,53,49,40,48,42,31,91,77,62,29.77,29.68,12,8,0,0.00
2013-10-22,48,40,32,37,32,26,85,72,56,29.84,29.76,11,7,0,0.00
2013-10-23,45,38,32,35,31,24,95,77,44,29.87,29.80,15,6,0,0.00
2013-10-24,45,36,30,36,31,28,94,83,62,30.11,29.86,16,5,0,0.00
2013-10-25,46,41,33,36,30,26,95,67,46,30.25,29.93,9,7,0,0.00
2013-10-26,47,43,36,41,36,30,92,77,59,29.94,29.65,17,10,0,0.00
2013-10-27,50,41,32,36,32,-100,93,74,54,29.99,29.88,10,4,0,0.00
2013-10-28,43,39,36,36,32,-100,86,78,67,30.41,29.96,18,9,0,0.00
2013-10-29,42,38,29,37,33,25,88,81,69,30.44,30.22,9,4,0,0.00
2013-10-30,53,41,31,46,38,29,97,89,77,30.22,29.88,5,1,0,0.00
2013-10-31,61,56,51,60,54,45,100,95,74,29.89,28.99,9,4,0,0.00
2013-11-1,60,49,46,59,46,44,97,91,84,29.59,28.95,15,8,0,0.00
2013-11-2,46,41,34,45,38,29,96,87,75,30.09,29.59,15,9,0,0.00
2013-11-3,42,36,30,36,30,-100,95,81,66,30.41,30.09,7,3,0,0.00
2013-11-4,47,41,34,34,31,26,86,68,45,30.43,30.21,9,7,0,0.00
2013-11-5,58,50,45,48,44,35,82,77,68,30.27,30.06,8,5,0,0.00
2013-11-6,56,51,41,54,48,37,96,88,71,30.06,29.63,16,9,0,0.00
2013-11-7,40,38,36,36,31,26,88,76,61,30.07,29.92,10,6,0,0.00
2013-11-8,43,36,30,32,29,26,89,74,53,30.22,30.05,9,4,0,0.00
2013-11-9,50,44,36,42,34,-100,78,71,64,30.10,29.68,15,9,0,0.00
2013-11-10,45,41,34,35,31,28,79,67,54,30.19,29.81,21,10,0,0.00
2013-11-11,40,34,26,36,28,17,93,79,64,30.31,29.97,20,10,0,0.00
2013-11-12,32,26,21,22,18,16,86,71,56,30.51,30.31,15,8,0,0.00
2013-11-13,42,31,21,25,20,17,87,66,38,30.49,30.01,16,9,0,0.00
2013-11-14,47,39,32,32,28,24,77,65,52,30.01,29.86,14,9,0,0.00
2013-11-15,48,43,38,35,31,28,72,63,57,29.98,29.88,10,6,0,0.00
2013-11-16,55,45,36,51,38,-100,91,79,72,30.01,29.68,14,6,0,0.00
2013-11-17,63,57,45,59,54,43,96,91,85,29.66,29.02,21,12,0,0.00
2013-11-18,46,39,34,42,31,25,90,73,61,30.06,29.25,18,14,0,0.00
2013-11-19,36,33,30,27,25,23,80,70,64,30.38,30.08,12,5,0,0.00
2013-11-20,43,35,27,35,29,24,88,79,64,30.41,30.20,7,3,0,0.00
2013-11-21,47,42,37,43,37,29,96,85,72,30.24,30.12,5,1,0,0.00
2013-11-22,44,36,26,43,33,22,97,87,72,30.33,30.09,20,7,0,0.00
2013-11-23,28,22,15,24,13,-100,89,70,46,30.49,30.20,24,12,0,0.00
2013-11-24,23,19,14,15,11,9,84,73,56,30.56,30.31,10,6,0,0.00
2013-11-25,31,26,21,28,17,5,94,70,45,30.31,29.95,15,10,0,0.00
2013-11-26,33,30,27,30,28,22,95,90,81,30.01,29.89,17,6,0,0.00
2013-11-27,26,21,17,20,13,10,87,72,56,30.16,29.95,22,12,0,0.00
2013-11-28,24,20,15,22,17,11,94,87,74,30.42,30.16,7,2,0,0.00
2013-12-2,36,31,29,29,28,26,95,87,69,29.99,29.87,5,0,0,0.00
2013-12-3,32,30,26,31,29,25,97,95,90,29.92,29.85,8,4,0,0.00
2013-12-4,52,36,32,51,35,31,99,98,96,29.86,29.50,9,5,0,0.00
2013-12-5,54,40,27,52,32,18,95,76,56,30.07,29.48,15,10,0,0.00
2013-12-6,26,22,18,17,14,9,75,70,64,30.37,30.07,10,7,0,0.00
2013-12-7,22,18,12,13,8,-100,77,66,58,30.59,30.37,12,6,0,0.00
2013-12-8,26,17,10,24,12,6,93,81,68,30.57,29.99,8,4,0,0.00
2013-12-9,29,24,14,26,20,6,95,85,64,30.02,29.80,15,7,0,0.00
2013-12-10,18,13,4,13,7,0,86,76,60,30.11,29.84,14,7,0,0.00
2013-12-11,17,13,5,11,6,0,87,74,55,30.39,30.12,13,6,0,0.00
2013-12-12,19,11,5,15,7,0,88,82,76,30.40,30.09,12,7,0,0.00
2013-12-13,22,19,12,18,15,8,89,82,76,30.34,30.07,15,7,0,0.00
2013-12-14,22,18,11,20,15,-100,93,89,83,30.34,29.83,14,10,0,0.00
2013-12-15,23,18,11,19,14,5,93,84,68,29.94,29.73,13,6,0,0.00
2013-12-16,16,10,1,10,5,-2,89,80,63,30.19,29.94,8,2,0,0.00
2013-12-17,26,20,14,24,18,9,93,90,75,30.02,29.80,12,3,0,0.00
2013-12-18,27,25,21,22,20,14,90,82,70,30.04,29.80,9,5,0,0.00
2013-12-19,32,26,21,28,22,13,94,83,71,30.00,29.76,10,4,0,0.00
2013-12-20,32,30,26,31,28,25,97,96,95,29.93,29.74,16,10,0,0.00
2013-12-21,30,28,27,29,26,-100,97,93,91,29.89,29.74,15,9,0,0.00
2013-12-22,30,27,21,29,26,19,98,96,93,29.98,29.63,20,12,0,0.00
2013-12-23,22,19,11,20,17,8,95,91,84,30.29,29.97,8,3,0,0.00
2013-12-27,37,26,18,32,23,15,94,88,81,30.27,29.91,13,5,0,0.00
2013-12-28,40,36,31,34,30,-100,92,84,78,30.02,29.78,11,5,0,0.00
2013-12-29,38,29,15,33,23,7,90,80,70,30.00,29.67,18,9,0,0.00
2013-12-30,16,13,11,7,5,2,74,68,56,30.25,30.01,14,4,0,0.00
2013-12-31,15,12,9,10,5,1,88,75,61,30.32,30.02,15,7,0,0.00
2014-1-1,13,8,0,8,2,-5,86,77,60,30.44,30.33,13,6,0,0.00
2014-1-2,10,8,0,8,3,-6,90,80,67,30.33,30.20,23,15,0,0.00